Time;durP1;ratioP1;P1;durP2;ratioP2;P2;SDS_P1;SDS_P2;PMS_P1;PMS_P2;Temp;Humidity;BMP_temperature;BMP_pressure;BME280_temperature;BME280_humidity;BME280_pressure;Samples;Min_cycle;Max_cycle;Signal;HPM_P1;HPM_P2
2024/04/05 00:00:39;;;;;;;;;5.00;2.75;;;;;;;;5011184;28;8854;-67
2024/04/05 00:03:04;;;;;;;;;8.00;7.75;;;;;;;;5011000;28;8796;-65
2024/04/05 00:05:30;;;;;;;;;9.25;7.25;;;;;;;;5009419;28;8979;-65
2024/04/05 00:07:55;;;;;;;;;10.00;8.00;;;;;;;;5010771;28;8803;-65
2024/04/05 00:10:21;;;;;;;;;6.50;6.50;;;;;;;;5010874;28;8792;-66
2024/04/05 00:12:46;;;;;;;;;8.00;7.00;;;;;;;;5009515;28;8943;-65
2024/04/05 00:15:12;;;;;;;;;8.00;8.00;;;;;;;;5010724;28;8915;-66
2024/04/05 00:17:37;;;;;;;;;8.00;7.00;;;;;;;;5009170;28;8828;-66
2024/04/05 00:20:02;;;;;;;;;9.00;8.50;;;;;;;;5010576;28;8831;-66
2024/04/05 00:22:28;;;;;;;;;9.00;8.00;;;;;;;;5010684;28;8842;-66
2024/04/05 00:24:55;;;;;;;;;10.25;10.25;;;;;;;;5010375;28;8796;-66
2024/04/05 00:27:20;;;;;;;;;10.25;8.75;;;;;;;;5010536;28;8800;-66
2024/04/05 00:29:46;;;;;;;;;10.00;10.00;;;;;;;;5010307;28;12295;-65
2024/04/05 00:32:11;;;;;;;;;7.50;7.00;;;;;;;;5010367;28;8937;-65
2024/04/05 00:34:36;;;;;;;;;13.50;10.00;;;;;;;;5010318;28;9202;-65
2024/04/05 00:37:01;;;;;;;;;10.00;9.50;;;;;;;;5010175;28;8785;-65
2024/04/05 00:39:27;;;;;;;;;10.25;8.00;;;;;;;;5010392;28;9546;-65
2024/04/05 00:41:52;;;;;;;;;10.75;10.75;;;;;;;;5008943;28;8811;-66
2024/04/05 00:44:18;;;;;;;;;6.25;6.25;;;;;;;;5010299;28;8894;-65
2024/04/05 00:46:43;;;;;;;;;9.50;7.75;;;;;;;;5005401;28;8851;-66
2024/04/05 00:49:09;;;;;;;;;8.00;8.00;;;;;;;;5005663;28;8814;-66
2024/04/05 00:51:35;;;;;;;;;11.50;9.00;;;;;;;;4994315;28;8792;-65
2024/04/05 00:54:01;;;;;;;;;11.00;8.00;;;;;;;;5010017;28;11528;-65
2024/04/05 00:56:28;;;;;;;;;7.00;7.00;;;;;;;;5010056;28;11411;-65
2024/04/05 00:58:54;;;;;;;;;11.25;10.25;;;;;;;;5009886;28;8978;-65
2024/04/05 01:01:19;;;;;;;;;10.25;10.00;;;;;;;;5010083;28;11573;-66
2024/04/05 01:03:44;;;;;;;;;10.00;7.50;;;;;;;;5009540;28;8820;-65
2024/04/05 01:06:10;;;;;;;;;12.00;8.50;;;;;;;;5008374;28;9701;-66
2024/04/05 01:08:35;;;;;;;;;10.00;7.50;;;;;;;;5009959;28;8812;-66
2024/04/05 01:11:00;;;;;;;;;11.00;7.25;;;;;;;;5009709;28;8910;-67
2024/04/05 01:13:26;;;;;;;;;7.00;7.00;;;;;;;;5008571;28;8828;-66
2024/04/05 01:15:52;;;;;;;;;8.00;8.00;;;;;;;;5008332;28;8918;-66
2024/04/05 01:18:17;;;;;;;;;6.25;5.75;;;;;;;;5009846;28;8879;-65
2024/04/05 01:20:43;;;;;;;;;10.00;8.00;;;;;;;;5009376;28;8796;-65
2024/04/05 01:23:11;;;;;;;;;9.00;6.50;;;;;;;;5008152;28;8862;-65
2024/04/05 01:25:36;;;;;;;;;12.00;8.00;;;;;;;;5009737;28;11472;-66
2024/04/05 01:28:03;;;;;;;;;11.00;10.00;;;;;;;;5009468;28;11516;-66
2024/04/05 01:30:28;;;;;;;;;11.00;7.75;;;;;;;;5009622;28;8796;-66
2024/04/05 01:32:57;;;;;;;;;7.75;6.25;;;;;;;;5009751;28;11537;-66
2024/04/05 01:35:24;;;;;;;;;11.00;8.00;;;;;;;;5009363;28;9596;-66
2024/04/05 01:37:49;;;;;;;;;8.00;7.25;;;;;;;;5008094;28;11515;-65
2024/04/05 01:40:14;;;;;;;;;7.00;7.00;;;;;;;;5009246;28;11455;-66
2024/04/05 01:42:40;;;;;;;;;7.50;7.00;;;;;;;;5009379;28;8890;-65
2024/04/05 01:45:05;;;;;;;;;6.50;5.00;;;;;;;;5008004;28;9528;-65
2024/04/05 01:47:31;;;;;;;;;10.00;6.75;;;;;;;;5009304;28;8843;-65
2024/04/05 01:49:56;;;;;;;;;7.75;6.00;;;;;;;;5007927;28;8816;-64
2024/04/05 01:52:22;;;;;;;;;13.00;9.25;;;;;;;;5009897;28;8876;-65
2024/04/05 01:54:47;;;;;;;;;6.50;5.25;;;;;;;;5009903;28;8830;-65
2024/04/05 01:57:13;;;;;;;;;10.25;6.00;;;;;;;;5009408;28;8848;-66
2024/04/05 01:59:38;;;;;;;;;7.50;6.25;;;;;;;;5009139;28;8828;-66
2024/04/05 02:02:03;;;;;;;;;7.00;6.25;;;;;;;;5024477;22;8872;-67
2024/04/05 02:04:28;;;;;;;;;9.50;6.00;;;;;;;;5010434;28;8788;-67
2024/04/05 02:06:54;;;;;;;;;6.00;6.00;;;;;;;;5010492;28;8807;-67
2024/04/05 02:09:19;;;;;;;;;7.50;7.00;;;;;;;;5010442;28;8823;-67
2024/04/05 02:11:44;;;;;;;;;7.00;7.00;;;;;;;;5009066;28;8936;-67
2024/04/05 02:14:10;;;;;;;;;6.25;5.00;;;;;;;;5009136;28;8808;-67
2024/04/05 02:16:35;;;;;;;;;6.75;6.75;;;;;;;;5012466;28;8856;-67
2024/04/05 02:19:00;;;;;;;;;7.00;6.00;;;;;;;;5013957;28;8820;-67
2024/04/05 02:21:27;;;;;;;;;6.25;6.00;;;;;;;;5014060;28;8826;-67
2024/04/05 02:23:52;;;;;;;;;5.75;5.75;;;;;;;;5014113;28;8776;-67
2024/04/05 02:26:17;;;;;;;;;6.25;6.00;;;;;;;;5013798;28;12346;-67
2024/04/05 02:28:43;;;;;;;;;7.00;7.00;;;;;;;;5013907;28;9570;-67
2024/04/05 02:31:09;;;;;;;;;6.00;6.00;;;;;;;;5012497;28;8931;-67
2024/04/05 02:33:34;;;;;;;;;5.75;5.75;;;;;;;;5013886;28;8799;-67
2024/04/05 02:36:00;;;;;;;;;7.00;7.00;;;;;;;;5013630;28;11486;-67
2024/04/05 02:38:25;;;;;;;;;9.00;6.25;;;;;;;;5013844;28;8871;-67
2024/04/05 02:40:54;;;;;;;;;9.50;7.25;;;;;;;;5013580;28;8939;-67
2024/04/05 02:43:19;;;;;;;;;7.00;6.00;;;;;;;;5013843;28;8792;-67
2024/04/05 02:45:44;;;;;;;;;5.25;5.25;;;;;;;;5013515;28;11480;-67
2024/04/05 02:48:10;;;;;;;;;6.25;5.00;;;;;;;;5013514;28;8796;-67
2024/04/05 02:50:35;;;;;;;;;6.00;6.00;;;;;;;;5013368;28;8815;-67
2024/04/05 02:53:01;;;;;;;;;8.00;5.50;;;;;;;;5013424;28;8785;-67
2024/04/05 02:55:26;;;;;;;;;5.00;5.00;;;;;;;;5013619;28;9004;-67
2024/04/05 02:57:51;;;;;;;;;9.50;6.75;;;;;;;;5013436;28;8776;-67
2024/04/05 03:00:16;;;;;;;;;9.00;6.75;;;;;;;;5013232;28;9596;-67
2024/04/05 03:02:42;;;;;;;;;7.25;6.00;;;;;;;;5013664;28;8808;-67
2024/04/05 03:05:07;;;;;;;;;6.75;6.25;;;;;;;;5013192;28;8792;-67
2024/04/05 03:07:33;;;;;;;;;6.00;5.50;;;;;;;;5013222;28;8878;-67
2024/04/05 03:09:58;;;;;;;;;4.50;4.50;;;;;;;;5013173;28;8935;-67
2024/04/05 03:12:23;;;;;;;;;6.25;3.00;;;;;;;;5013306;28;8792;-67
2024/04/05 03:14:52;;;;;;;;;5.25;4.00;;;;;;;;5011807;28;8832;-67
2024/04/05 03:17:17;;;;;;;;;5.75;5.75;;;;;;;;5012979;28;8796;-67
2024/04/05 03:19:42;;;;;;;;;7.00;5.00;;;;;;;;5012618;28;11536;-67
2024/04/05 03:22:08;;;;;;;;;5.25;2.75;;;;;;;;5012829;28;8764;-67
2024/04/05 03:24:34;;;;;;;;;2.50;2.00;;;;;;;;5012916;28;8893;-67
2024/04/05 03:26:59;;;;;;;;;6.50;6.00;;;;;;;;5012711;28;8784;-67
2024/04/05 03:29:24;;;;;;;;;3.75;3.00;;;;;;;;5012820;28;8927;-67
2024/04/05 03:31:50;;;;;;;;;5.00;5.00;;;;;;;;5012680;28;9005;-67
2024/04/05 03:34:15;;;;;;;;;5.00;4.50;;;;;;;;5012623;28;8812;-67
2024/04/05 03:36:40;;;;;;;;;5.00;4.50;;;;;;;;5012612;28;8777;-67
2024/04/05 03:39:08;;;;;;;;;3.00;3.00;;;;;;;;5012496;28;8971;-67
2024/04/05 03:41:33;;;;;;;;;3.50;3.50;;;;;;;;5012329;28;8780;-67
2024/04/05 03:43:59;;;;;;;;;5.25;5.25;;;;;;;;5012464;28;11518;-67
2024/04/05 03:46:24;;;;;;;;;6.00;3.50;;;;;;;;5012727;28;8812;-66
2024/04/05 03:48:49;;;;;;;;;6.75;5.00;;;;;;;;5012306;28;8784;-67
2024/04/05 03:51:15;;;;;;;;;5.25;3.00;;;;;;;;5012631;28;8792;-67
2024/04/05 03:53:40;;;;;;;;;3.00;3.00;;;;;;;;5012470;28;8826;-67
2024/04/05 03:56:06;;;;;;;;;3.00;3.00;;;;;;;;5012302;28;8804;-66
2024/04/05 03:58:31;;;;;;;;;5.25;3.00;;;;;;;;5012132;28;8848;-66
2024/04/05 04:00:57;;;;;;;;;5.00;5.00;;;;;;;;5012358;28;8931;-67
2024/04/05 04:03:22;;;;;;;;;6.50;5.25;;;;;;;;5012131;28;8834;-67
2024/04/05 04:05:47;;;;;;;;;2.50;2.25;;;;;;;;5012089;28;8815;-67
2024/04/05 04:08:13;;;;;;;;;6.00;5.00;;;;;;;;5012202;28;8804;-67
2024/04/05 04:10:38;;;;;;;;;9.00;6.00;;;;;;;;5012017;28;8870;-67
2024/04/05 04:13:04;;;;;;;;;5.50;4.00;;;;;;;;5012023;28;8922;-67
2024/04/05 04:15:29;;;;;;;;;4.50;3.00;;;;;;;;5011987;28;8824;-67
2024/04/05 04:17:55;;;;;;;;;5.00;5.00;;;;;;;;5011691;28;8792;-67
2024/04/05 04:20:20;;;;;;;;;5.00;5.00;;;;;;;;5011792;28;8934;-66
2024/04/05 04:22:45;;;;;;;;;4.50;4.50;;;;;;;;5011743;28;8923;-67
2024/04/05 04:25:11;;;;;;;;;4.25;3.50;;;;;;;;5011915;28;8796;-67
2024/04/05 04:27:37;;;;;;;;;6.00;5.00;;;;;;;;5011812;28;8824;-67
2024/04/05 04:30:02;;;;;;;;;7.50;5.25;;;;;;;;5010319;28;8934;-68
2024/04/05 04:32:29;;;;;;;;;3.50;3.50;;;;;;;;5011479;28;8804;-67
2024/04/05 04:34:55;;;;;;;;;3.50;2.75;;;;;;;;5011576;28;8812;-67
2024/04/05 04:37:20;;;;;;;;;6.50;5.00;;;;;;;;5011375;28;11485;-67
2024/04/05 04:39:46;;;;;;;;;8.50;6.00;;;;;;;;5011453;28;8860;-66
2024/04/05 04:42:12;;;;;;;;;5.50;5.50;;;;;;;;5011506;28;8808;-67
2024/04/05 04:44:37;;;;;;;;;5.75;5.25;;;;;;;;5011418;28;8800;-66
2024/04/05 04:47:02;;;;;;;;;7.00;5.25;;;;;;;;5010127;28;8840;-66
2024/04/05 04:49:28;;;;;;;;;4.25;3.25;;;;;;;;5011366;28;8910;-67
2024/04/05 04:51:53;;;;;;;;;6.00;5.00;;;;;;;;5011152;28;8877;-67
2024/04/05 04:54:18;;;;;;;;;4.75;4.00;;;;;;;;5011330;28;8788;-67
2024/04/05 04:56:44;;;;;;;;;5.00;5.00;;;;;;;;5010780;28;8816;-67
2024/04/05 04:59:09;;;;;;;;;6.00;5.25;;;;;;;;5011132;28;8854;-67
2024/04/05 05:01:35;;;;;;;;;10.50;10.50;;;;;;;;5011274;28;8800;-70
2024/04/05 05:04:04;;;;;;;;;7.00;5.25;;;;;;;;5011186;28;8792;-69
2024/04/05 05:06:29;;;;;;;;;6.00;6.00;;;;;;;;5011120;28;8788;-69
2024/04/05 05:08:54;;;;;;;;;5.25;5.00;;;;;;;;5010973;28;12217;-70
2024/04/05 05:11:20;;;;;;;;;6.25;5.00;;;;;;;;5010954;28;8799;-67
2024/04/05 05:13:45;;;;;;;;;5.75;4.75;;;;;;;;5010997;28;8796;-69
2024/04/05 05:16:10;;;;;;;;;5.75;5.00;;;;;;;;5011016;28;8834;-66
2024/04/05 05:18:36;;;;;;;;;11.25;6.50;;;;;;;;5010516;28;8812;-67
2024/04/05 05:21:01;;;;;;;;;5.50;5.25;;;;;;;;5009420;28;8831;-68
2024/04/05 05:23:26;;;;;;;;;6.00;6.00;;;;;;;;5010453;28;8842;-68
2024/04/05 05:25:52;;;;;;;;;8.75;8.75;;;;;;;;5010746;28;8810;-68
2024/04/05 05:28:17;;;;;;;;;10.00;10.00;;;;;;;;5010769;28;8865;-67
2024/04/05 05:30:43;;;;;;;;;6.00;6.00;;;;;;;;5010556;28;8819;-68
2024/04/05 05:33:08;;;;;;;;;6.25;6.25;;;;;;;;5010870;28;8780;-68
2024/04/05 05:35:34;;;;;;;;;7.75;6.50;;;;;;;;5010856;28;8796;-71
2024/04/05 05:38:00;;;;;;;;;5.50;5.00;;;;;;;;5010690;28;8846;-71
2024/04/05 05:40:26;;;;;;;;;8.75;5.00;;;;;;;;5007540;28;8816;-68
2024/04/05 05:42:52;;;;;;;;;6.50;6.00;;;;;;;;5000690;28;11685;-68
2024/04/05 05:45:18;;;;;;;;;8.00;5.75;;;;;;;;5007718;28;8808;-70
2024/04/05 05:47:43;;;;;;;;;10.25;8.50;;;;;;;;5009370;28;8811;-71
2024/04/05 05:50:11;;;;;;;;;5.25;5.25;;;;;;;;5011493;28;11501;-69
2024/04/05 05:52:37;;;;;;;;;8.75;7.25;;;;;;;;5013224;28;8843;-69
2024/04/05 05:55:02;;;;;;;;;5.50;5.00;;;;;;;;5010959;28;11476;-68
2024/04/05 05:57:27;;;;;;;;;6.75;6.00;;;;;;;;5014413;28;8804;-67
2024/04/05 05:59:53;;;;;;;;;16.00;9.00;;;;;;;;5014181;28;8918;-67
2024/04/05 06:02:20;;;;;;;;;11.25;7.00;;;;;;;;5011420;28;9587;-67
2024/04/05 06:04:45;;;;;;;;;10.25;10.25;;;;;;;;5011729;28;8808;-66
2024/04/05 06:07:11;;;;;;;;;9.00;9.00;;;;;;;;5011165;28;12366;-66
2024/04/05 06:09:36;;;;;;;;;1.50;1.00;;;;;;;;5000457;28;8930;-66
2024/04/05 06:12:02;;;;;;;;;9.00;9.00;;;;;;;;5004305;28;8826;-66
2024/04/05 06:14:28;;;;;;;;;9.00;9.00;;;;;;;;5005360;28;8796;-67
2024/04/05 06:16:53;;;;;;;;;10.50;7.50;;;;;;;;5004856;28;11543;-66
2024/04/05 06:19:18;;;;;;;;;8.50;8.50;;;;;;;;5003737;28;8834;-67
2024/04/05 06:21:44;;;;;;;;;8.50;6.50;;;;;;;;5005471;28;8784;-67
2024/04/05 06:24:09;;;;;;;;;10.75;6.75;;;;;;;;5012109;28;8893;-67
2024/04/05 06:26:35;;;;;;;;;12.00;9.00;;;;;;;;5006272;28;8811;-68
2024/04/05 06:29:01;;;;;;;;;7.00;7.00;;;;;;;;5004273;28;8808;-67
2024/04/05 06:31:26;;;;;;;;;10.75;10.25;;;;;;;;5002447;28;8803;-67
2024/04/05 06:33:51;;;;;;;;;11.50;9.75;;;;;;;;5001523;28;8890;-69
2024/04/05 06:36:17;;;;;;;;;19.00;15.00;;;;;;;;5001285;28;8800;-68
2024/04/05 06:38:42;;;;;;;;;13.00;11.25;;;;;;;;5002575;28;8908;-67
2024/04/05 06:41:07;;;;;;;;;13.00;12.00;;;;;;;;5003016;28;8795;-67
2024/04/05 06:43:33;;;;;;;;;12.75;12.00;;;;;;;;5004160;28;8825;-67
2024/04/05 06:45:59;;;;;;;;;12.00;11.50;;;;;;;;5001470;28;8799;-68
2024/04/05 06:48:25;;;;;;;;;12.00;10.25;;;;;;;;5001943;28;8834;-67
2024/04/05 06:50:51;;;;;;;;;14.75;13.25;;;;;;;;5009272;28;12178;-67
2024/04/05 06:53:19;;;;;;;;;13.50;10.50;;;;;;;;5009676;28;8786;-68
2024/04/05 06:55:45;;;;;;;;;11.00;10.00;;;;;;;;4993742;28;8794;-67
2024/04/05 06:58:12;;;;;;;;;15.75;14.75;;;;;;;;4992999;28;11550;-68
2024/04/05 07:00:38;;;;;;;;;14.25;11.00;;;;;;;;4991814;28;11654;-67
2024/04/05 07:03:03;;;;;;;;;16.75;13.00;;;;;;;;4993426;28;11567;-67
2024/04/05 07:05:28;;;;;;;;;19.50;16.50;;;;;;;;4997254;28;12308;-66
2024/04/05 07:07:54;;;;;;;;;15.00;15.00;;;;;;;;5012340;28;9572;-67
2024/04/05 07:10:20;;;;;;;;;14.00;14.00;;;;;;;;5012753;28;9531;-68
2024/04/05 07:12:48;;;;;;;;;20.50;15.25;;;;;;;;5012703;28;9518;-66
2024/04/05 07:15:13;;;;;;;;;13.75;12.00;;;;;;;;5011295;28;11569;-66
2024/04/05 07:17:38;;;;;;;;;15.25;14.75;;;;;;;;5012359;28;11502;-66
2024/04/05 07:20:04;;;;;;;;;14.00;13.00;;;;;;;;5012278;28;8800;-67
2024/04/05 07:22:29;;;;;;;;;18.75;17.75;;;;;;;;5012762;28;8776;-67
2024/04/05 07:24:55;;;;;;;;;16.50;15.00;;;;;;;;5012694;28;8792;-69
2024/04/05 07:27:20;;;;;;;;;15.75;14.50;;;;;;;;5010714;28;8808;-67
2024/04/05 07:29:46;;;;;;;;;13.00;12.75;;;;;;;;5012332;28;8839;-67
2024/04/05 07:32:12;;;;;;;;;14.75;14.75;;;;;;;;5012436;28;8800;-67
2024/04/05 07:34:38;;;;;;;;;15.25;15.25;;;;;;;;5012173;28;8899;-67
2024/04/05 07:37:04;;;;;;;;;18.75;15.00;;;;;;;;5007745;28;11516;-70
2024/04/05 07:39:29;;;;;;;;;14.75;13.00;;;;;;;;5010292;28;8909;-71
2024/04/05 07:41:55;;;;;;;;;15.00;13.25;;;;;;;;5012158;28;9636;-72
2024/04/05 07:44:20;;;;;;;;;18.00;15.75;;;;;;;;5011981;28;8808;-72
2024/04/05 07:46:46;;;;;;;;;15.50;13.25;;;;;;;;5012122;28;8800;-73
2024/04/05 07:49:11;;;;;;;;;19.25;15.75;;;;;;;;5011674;28;8804;-76
2024/04/05 07:51:37;;;;;;;;;19.25;17.50;;;;;;;;5012014;28;8824;-77
2024/04/05 07:54:02;;;;;;;;;18.00;17.00;;;;;;;;5011952;28;8906;-71
2024/04/05 07:56:27;;;;;;;;;19.00;19.00;;;;;;;;5011932;28;8788;-71
2024/04/05 07:58:53;;;;;;;;;14.75;14.75;;;;;;;;5011369;28;8870;-71
2024/04/05 08:01:18;;;;;;;;;21.50;18.00;;;;;;;;5011740;28;8772;-69
2024/04/05 08:03:44;;;;;;;;;16.25;15.00;;;;;;;;5011786;28;8992;-69
2024/04/05 08:06:09;;;;;;;;;16.75;15.25;;;;;;;;5011004;28;9518;-68
2024/04/05 08:08:34;;;;;;;;;14.00;13.75;;;;;;;;5010439;28;8851;-70
2024/04/05 08:11:00;;;;;;;;;16.00;14.25;;;;;;;;5011594;28;8886;-70
2024/04/05 08:13:26;;;;;;;;;19.25;18.00;;;;;;;;5011097;28;8788;-70
2024/04/05 08:15:51;;;;;;;;;16.00;13.75;;;;;;;;5011721;28;8811;-70
2024/04/05 08:18:17;;;;;;;;;17.75;13.00;;;;;;;;5011414;28;8851;-71
2024/04/05 08:20:42;;;;;;;;;18.50;17.75;;;;;;;;5011530;28;8822;-70
2024/04/05 08:23:07;;;;;;;;;15.00;13.25;;;;;;;;5011288;28;9604;-70
2024/04/05 08:25:32;;;;;;;;;15.00;14.00;;;;;;;;5011566;28;9640;-70
2024/04/05 08:27:58;;;;;;;;;18.50;17.00;;;;;;;;5010906;28;8847;-70
2024/04/05 08:30:23;;;;;;;;;14.50;14.00;;;;;;;;5011246;28;8792;-69
2024/04/05 08:32:48;;;;;;;;;16.00;12.75;;;;;;;;5011522;28;8797;-68
2024/04/05 08:35:14;;;;;;;;;11.50;11.50;;;;;;;;5011048;28;8885;-70
2024/04/05 08:37:40;;;;;;;;;12.00;12.00;;;;;;;;5011046;28;9650;-67
2024/04/05 08:40:05;;;;;;;;;16.50;14.75;;;;;;;;5010898;28;8940;-69
2024/04/05 08:42:34;;;;;;;;;12.75;11.50;;;;;;;;5011159;28;8899;-68
2024/04/05 08:45:00;;;;;;;;;13.75;13.75;;;;;;;;5011188;28;8877;-67
2024/04/05 08:47:26;;;;;;;;;12.00;12.00;;;;;;;;5009506;28;10503;-68
2024/04/05 08:49:51;;;;;;;;;16.75;15.00;;;;;;;;5010693;28;9671;-69
2024/04/05 08:52:17;;;;;;;;;10.33;10.33;;;;;;;;5009746;28;9564;-67
2024/04/05 08:54:42;;;;;;;;;14.67;14.67;;;;;;;;5011077;28;8887;-71
2024/04/05 08:57:09;;;;;;;;;14.00;11.67;;;;;;;;5010630;28;8795;-70
2024/04/05 08:59:34;;;;;;;;;13.00;10.75;;;;;;;;5010517;28;8913;-70
2024/04/05 09:02:00;;;;;;;;;16.67;12.00;;;;;;;;5009166;28;8836;-72
2024/04/05 09:04:26;;;;;;;;;14.00;10.00;;;;;;;;5008607;28;8804;-71
2024/04/05 09:06:55;;;;;;;;;12.00;11.00;;;;;;;;5008520;28;8808;-72
2024/04/05 09:09:24;;;;;;;;;11.50;10.25;;;;;;;;5008527;28;8828;-72
2024/04/05 09:11:49;;;;;;;;;11.75;10.50;;;;;;;;5008568;28;8804;-73
2024/04/05 09:14:15;;;;;;;;;10.00;9.00;;;;;;;;5008605;28;8823;-72
2024/04/05 09:16:42;;;;;;;;;10.75;8.75;;;;;;;;5009606;28;8808;-72
2024/04/05 09:19:11;;;;;;;;;11.50;9.25;;;;;;;;5010139;28;9578;-71
2024/04/05 09:21:43;;;;;;;;;8.75;7.00;;;;;;;;5010418;28;8890;-71
2024/04/05 09:24:08;;;;;;;;;7.00;6.50;;;;;;;;5008898;28;8792;-70
2024/04/05 09:26:34;;;;;;;;;5.00;5.00;;;;;;;;5010712;28;8788;-72
2024/04/05 09:29:00;;;;;;;;;6.00;5.00;;;;;;;;5010281;28;8931;-76
2024/04/05 09:31:26;;;;;;;;;6.75;6.75;;;;;;;;5010526;28;8822;-72
2024/04/05 09:34:04;;;;;;;;;6.00;3.67;;;;;;;;5010592;28;8780;-72
2024/04/05 09:36:29;;;;;;;;;6.25;5.00;;;;;;;;5010070;28;8792;-72
2024/04/05 09:38:55;;;;;;;;;8.33;7.33;;;;;;;;5006926;28;8847;-71
2024/04/05 09:41:21;;;;;;;;;3.67;3.33;;;;;;;;4990822;28;9477;-72
2024/04/05 09:43:47;;;;;;;;;4.00;4.00;;;;;;;;4991016;28;8919;-73
2024/04/05 09:46:14;;;;;;;;;6.00;5.67;;;;;;;;4999768;28;8930;-70
2024/04/05 09:48:40;;;;;;;;;5.25;4.50;;;;;;;;5010178;28;8842;-69
2024/04/05 09:51:13;;;;;;;;;6.67;4.00;;;;;;;;5010122;28;8776;-67
2024/04/05 09:53:40;;;;;;;;;4.00;4.00;;;;;;;;5010589;28;8788;-70
2024/04/05 09:56:08;;;;;;;;;6.50;4.00;;;;;;;;5009068;28;8792;-70
2024/04/05 09:58:34;;;;;;;;;6.25;4.75;;;;;;;;5006360;28;8913;-72
2024/04/05 10:01:06;;;;;;;;;10.67;9.67;;;;;;;;4999160;28;8803;-73
2024/04/05 10:03:32;;;;;;;;;7.00;7.00;;;;;;;;4998886;28;8809;-72
2024/04/05 10:06:08;;;;;;;;;6.25;5.50;;;;;;;;5000837;28;8860;-72
2024/04/05 10:08:33;;;;;;;;;6.00;5.00;;;;;;;;5000823;28;8804;-75
2024/04/05 10:11:07;;;;;;;;;16.33;16.33;;;;;;;;4998914;28;8807;-73
2024/04/05 10:13:33;;;;;;;;;10.25;9.75;;;;;;;;4997683;28;9564;-74
2024/04/05 10:15:59;;;;;;;;;6.67;6.33;;;;;;;;5001506;28;8790;-74
2024/04/05 10:18:37;;;;;;;;;6.75;6.75;;;;;;;;4991499;28;8969;-75
2024/04/05 10:21:08;;;;;;;;;4.75;4.75;;;;;;;;4990308;28;8802;-73
2024/04/05 10:23:34;;;;;;;;;4.00;4.00;;;;;;;;4989302;28;8825;-73
2024/04/05 10:26:00;;;;;;;;;6.75;5.00;;;;;;;;4990604;28;8783;-69
2024/04/05 10:28:25;;;;;;;;;7.33;5.00;;;;;;;;4989102;28;8892;-69
2024/04/05 10:30:52;;;;;;;;;7.67;7.67;;;;;;;;4990082;28;8833;-71
2024/04/05 10:33:19;;;;;;;;;6.75;5.75;;;;;;;;4990364;28;8771;-73
2024/04/05 10:35:45;;;;;;;;;8.75;7.00;;;;;;;;4990825;28;8802;-73
2024/04/05 10:38:11;;;;;;;;;8.75;7.75;;;;;;;;4993772;28;8803;-74
2024/04/05 10:40:36;;;;;;;;;8.33;8.00;;;;;;;;4984806;28;10392;-74
2024/04/05 10:43:11;;;;;;;;;7.00;7.00;;;;;;;;4989702;28;10613;-71
2024/04/05 10:45:37;;;;;;;;;10.50;9.75;;;;;;;;5033274;28;8832;-69
2024/04/05 10:48:04;;;;;;;;;12.00;8.25;;;;;;;;5032772;28;8820;-69
2024/04/05 10:50:30;;;;;;;;;7.25;7.25;;;;;;;;5033056;28;9018;-71
2024/04/05 10:52:55;;;;;;;;;11.33;10.67;;;;;;;;5032962;28;8797;-71
2024/04/05 10:55:20;;;;;;;;;11.33;8.00;;;;;;;;5033038;28;8789;-71
2024/04/05 10:57:46;;;;;;;;;8.00;8.00;;;;;;;;5032763;28;8813;-72
2024/04/05 11:00:12;;;;;;;;;8.67;7.67;;;;;;;;5032757;28;8814;-72
2024/04/05 11:02:40;;;;;;;;;6.50;6.50;;;;;;;;5033044;28;8813;-72
2024/04/05 11:05:14;;;;;;;;;8.00;8.00;;;;;;;;5032583;28;8806;-73
2024/04/05 11:07:44;;;;;;;;;9.67;9.67;;;;;;;;5030814;28;8914;-69
2024/04/05 11:10:19;;;;;;;;;15.33;15.33;;;;;;;;5010940;28;8924;-76
2024/04/05 11:12:45;;;;;;;;;12.25;9.25;;;;;;;;5011397;28;9053;-71
2024/04/05 11:15:11;;;;;;;;;13.00;11.00;;;;;;;;5010789;28;8909;-72
2024/04/05 11:17:36;;;;;;;;;25.25;22.00;;;;;;;;5029681;28;8841;-71
2024/04/05 11:20:06;;;;;;;;;10.33;9.00;;;;;;;;5026802;28;8813;-72
2024/04/05 11:22:31;;;;;;;;;9.00;9.00;;;;;;;;5031203;28;8817;-74
2024/04/05 11:24:56;;;;;;;;;6.00;6.00;;;;;;;;5031538;28;8912;-80
2024/04/05 11:27:22;;;;;;;;;8.67;7.00;;;;;;;;5031679;28;8805;-80
2024/04/05 11:29:47;;;;;;;;;13.67;13.67;;;;;;;;5028735;28;8844;-76
2024/04/05 11:32:23;;;;;;;;;11.00;10.33;;;;;;;;5030701;28;8858;-74
2024/04/05 11:34:48;;;;;;;;;10.00;10.00;;;;;;;;5021958;28;8828;-75
2024/04/05 11:37:14;;;;;;;;;9.67;9.00;;;;;;;;5012221;28;8972;-77
2024/04/05 11:39:41;;;;;;;;;16.33;13.33;;;;;;;;5011948;28;9590;-78
2024/04/05 11:42:07;;;;;;;;;9.67;8.00;;;;;;;;5012088;28;8857;-75
2024/04/05 11:44:32;;;;;;;;;10.00;9.00;;;;;;;;5012277;28;8997;-78
2024/04/05 11:46:59;;;;;;;;;15.50;14.25;;;;;;;;5026839;28;8805;-80
2024/04/05 11:49:24;;;;;;;;;24.00;23.75;;;;;;;;5029508;28;8821;-76
2024/04/05 11:51:49;;;;;;;;;11.67;10.00;;;;;;;;5031844;28;9928;-78
2024/04/05 11:54:15;;;;;;;;;19.75;18.00;;;;;;;;5031659;28;8790;-80
2024/04/05 11:56:40;;;;;;;;;13.75;12.75;;;;;;;;5031612;28;8959;-79
2024/04/05 11:59:05;;;;;;;;;17.00;16.75;;;;;;;;5028762;28;8984;-81
2024/04/05 12:01:30;;;;;;;;;14.75;14.75;;;;;;;;5031637;28;8801;-83
2024/04/05 12:03:56;;;;;;;;;6.00;6.00;;;;;;;;5031817;28;8840;-82
2024/04/05 12:06:21;;;;;;;;;14.75;14.75;;;;;;;;5031461;28;8822;-84
2024/04/05 12:08:46;;;;;;;;;13.00;12.50;;;;;;;;5028934;28;8841;-77
2024/04/05 12:11:13;;;;;;;;;8.00;8.00;;;;;;;;5031094;28;8778;-76
2024/04/05 12:13:38;;;;;;;;;10.67;9.67;;;;;;;;5031196;28;9593;-76
2024/04/05 12:16:08;;;;;;;;;7.67;7.67;;;;;;;;5031329;28;9345;-75
2024/04/05 12:18:38;;;;;;;;;5.50;5.00;;;;;;;;5024090;28;8847;-78
2024/04/05 12:21:03;;;;;;;;;6.00;5.00;;;;;;;;5008789;28;9156;-75
2024/04/05 12:23:28;;;;;;;;;6.00;4.00;;;;;;;;5009498;28;8984;-76
2024/04/05 12:25:54;;;;;;;;;4.00;4.00;;;;;;;;5011507;28;8776;-75
2024/04/05 12:28:20;;;;;;;;;3.25;3.25;;;;;;;;5010257;28;8815;-71
2024/04/05 12:30:45;;;;;;;;;4.00;3.00;;;;;;;;5010991;28;8909;-72
2024/04/05 12:33:11;;;;;;;;;2.33;2.33;;;;;;;;5010290;28;8910;-70
2024/04/05 12:35:36;;;;;;;;;2.33;2.00;;;;;;;;5010057;28;9641;-71
2024/04/05 12:38:01;;;;;;;;;5.00;3.33;;;;;;;;5009027;28;8838;-70
2024/04/05 12:40:39;;;;;;;;;1.00;1.00;;;;;;;;5010716;28;8832;-71
2024/04/05 12:43:04;;;;;;;;;3.67;2.00;;;;;;;;5009759;28;8838;-71
2024/04/05 12:45:31;;;;;;;;;3.33;2.00;;;;;;;;5014142;28;8886;-71
2024/04/05 12:47:56;;;;;;;;;7.00;6.00;;;;;;;;4995392;28;11279;-70
2024/04/05 12:50:21;;;;;;;;;4.00;4.00;;;;;;;;5019569;28;9331;-72
2024/04/05 12:52:46;;;;;;;;;7.00;5.33;;;;;;;;4962523;28;11236;-70
2024/04/05 12:55:12;;;;;;;;;7.33;6.67;;;;;;;;5024427;28;8801;-72
2024/04/05 12:57:37;;;;;;;;;3.00;3.00;;;;;;;;5019400;28;8812;-70
2024/04/05 13:00:04;;;;;;;;;5.00;5.00;;;;;;;;5027160;28;8848;-68
2024/04/05 13:02:30;;;;;;;;;5.00;4.00;;;;;;;;5030460;28;8990;-69
2024/04/05 13:04:55;;;;;;;;;3.00;3.00;;;;;;;;5030217;28;8955;-71
2024/04/05 13:07:21;;;;;;;;;4.67;4.67;;;;;;;;5030396;28;8785;-75
2024/04/05 13:09:46;;;;;;;;;5.00;5.00;;;;;;;;5029796;28;8857;-70
2024/04/05 13:12:11;;;;;;;;;4.00;4.00;;;;;;;;5029818;28;8805;-69
2024/04/05 13:14:37;;;;;;;;;3.00;3.00;;;;;;;;5029462;28;8801;-70
2024/04/05 13:17:02;;;;;;;;;3.00;3.00;;;;;;;;5029243;28;8821;-69
2024/04/05 13:19:27;;;;;;;;;5.67;5.00;;;;;;;;5015187;28;8855;-70
2024/04/05 13:21:53;;;;;;;;;5.33;5.00;;;;;;;;5009759;28;8807;-70
2024/04/05 13:24:18;;;;;;;;;5.33;4.67;;;;;;;;5009530;28;8815;-70
2024/04/05 13:26:43;;;;;;;;;4.67;4.67;;;;;;;;5010472;28;8776;-70
2024/04/05 13:29:09;;;;;;;;;3.67;3.67;;;;;;;;5009785;28;8852;-71
2024/04/05 13:31:34;;;;;;;;;6.33;5.00;;;;;;;;5010209;28;8827;-71
2024/04/05 13:34:06;;;;;;;;;6.67;4.00;;;;;;;;5009975;28;9584;-70
2024/04/05 13:36:31;;;;;;;;;5.00;4.00;;;;;;;;5010295;28;8800;-70
2024/04/05 13:38:57;;;;;;;;;6.00;5.00;;;;;;;;5009966;28;9433;-69
2024/04/05 13:41:22;;;;;;;;;3.00;3.00;;;;;;;;5010075;28;9538;-69
2024/04/05 13:43:48;;;;;;;;;3.00;3.00;;;;;;;;5010020;28;8796;-69
2024/04/05 13:46:18;;;;;;;;;2.00;1.00;;;;;;;;5019117;28;8837;-69
2024/04/05 13:48:44;;;;;;;;;5.00;3.00;;;;;;;;5027809;28;8841;-69
2024/04/05 13:51:10;;;;;;;;;4.00;4.00;;;;;;;;5030032;28;9179;-69
2024/04/05 13:53:36;;;;;;;;;4.00;4.00;;;;;;;;5029807;28;9279;-68
2024/04/05 13:56:02;;;;;;;;;3.00;3.00;;;;;;;;5029887;28;8820;-69
2024/04/05 13:58:29;;;;;;;;;3.00;3.00;;;;;;;;5015705;28;9276;-70
2024/04/05 14:00:54;;;;;;;;;2.00;2.00;;;;;;;;5009585;28;9291;-71
2024/04/05 14:03:20;;;;;;;;;4.00;4.00;;;;;;;;5009372;28;9242;-71
2024/04/05 14:05:45;;;;;;;;;4.00;4.00;;;;;;;;5010205;28;8788;-72
2024/04/05 14:08:10;;;;;;;;;5.00;5.00;;;;;;;;5013603;28;8848;-72
2024/04/05 14:10:37;;;;;;;;;5.00;2.67;;;;;;;;5029741;28;9605;-72
2024/04/05 14:13:03;;;;;;;;;3.00;3.00;;;;;;;;5024507;28;9546;-70
2024/04/05 14:15:29;;;;;;;;;6.00;6.00;;;;;;;;5016554;28;9940;-75
2024/04/05 14:17:54;;;;;;;;;5.00;4.00;;;;;;;;5030403;28;9434;-75
2024/04/05 14:20:19;;;;;;;;;4.00;4.00;;;;;;;;5018867;28;8917;-73
2024/04/05 14:22:44;;;;;;;;;5.67;5.00;;;;;;;;5026636;28;8794;-72
2024/04/05 14:25:10;;;;;;;;;7.00;6.00;;;;;;;;5033258;28;8797;-77
2024/04/05 14:27:35;;;;;;;;;8.25;8.25;;;;;;;;5028866;28;8810;-75
2024/04/05 14:30:01;;;;;;;;;5.00;5.00;;;;;;;;5020835;28;8831;-74
2024/04/05 14:32:26;;;;;;;;;3.00;3.00;;;;;;;;5013572;28;9583;-73
2024/04/05 14:34:52;;;;;;;;;3.00;3.00;;;;;;;;5021282;28;8809;-74
2024/04/05 14:37:17;;;;;;;;;2.00;2.00;;;;;;;;5016092;28;8800;-74
2024/04/05 14:39:43;;;;;;;;;3.00;2.00;;;;;;;;5013335;28;8933;-73